createdAt,value
2022-10-22T00:02:16.095Z,2.97
2022-10-22T00:07:16.180Z,2.95
2022-10-22T00:09:43.521Z,3.13
2022-10-22T00:12:12.212Z,3.00
2022-10-22T00:14:39.698Z,3.03
2022-10-22T00:17:10.545Z,3.00
2022-10-22T00:19:39.093Z,3.10
2022-10-22T00:22:06.729Z,3.20
2022-10-22T00:24:34.160Z,3.00
2022-10-22T00:27:01.747Z,2.90
2022-10-22T00:29:30.568Z,3.03
2022-10-22T00:31:58.027Z,3.45
2022-10-22T00:34:25.848Z,3.13
2022-10-22T00:36:53.603Z,2.85
2022-10-22T00:39:21.646Z,2.58
2022-10-22T00:41:50.035Z,3.00
2022-10-22T00:44:36.159Z,3.08
2022-10-22T00:47:04.888Z,2.90
2022-10-22T00:49:32.215Z,2.60
2022-10-22T00:51:59.588Z,2.40
2022-10-22T00:54:26.942Z,2.50
2022-10-22T00:56:54.393Z,2.42
2022-10-22T00:59:22.571Z,2.53
2022-10-22T01:01:50.283Z,2.05
2022-10-22T01:04:19.013Z,2.28
2022-10-22T01:06:47.262Z,2.20
2022-10-22T01:09:19.345Z,2.70
2022-10-22T01:11:52.359Z,2.63
2022-10-22T01:14:24.758Z,2.25
2022-10-22T01:16:55.757Z,2.17
2022-10-22T01:19:33.250Z,2.20
2022-10-22T01:22:01.736Z,2.33
2022-10-22T01:24:33.976Z,2.60
2022-10-22T01:27:04.818Z,2.42
2022-10-22T01:29:35.110Z,2.75
2022-10-22T01:32:05.756Z,2.27
2022-10-22T01:34:33.268Z,2.47
2022-10-22T01:37:01.250Z,2.30
2022-10-22T01:39:29.874Z,2.72
2022-10-22T01:41:57.447Z,2.40
2022-10-22T01:44:25.772Z,2.97
2022-10-22T01:46:56.367Z,2.38
2022-10-22T01:49:27.490Z,2.17
2022-10-22T01:52:01.043Z,2.50
2022-10-22T01:54:32.214Z,2.63
2022-10-22T01:57:06.448Z,2.73
2022-10-22T01:59:37.183Z,2.47
2022-10-22T02:02:08.622Z,2.35
2022-10-22T02:04:38.412Z,2.40
2022-10-22T02:07:07.902Z,1.92
2022-10-22T02:09:36.370Z,2.40
2022-10-22T02:14:40.202Z,2.20
2022-10-22T02:17:10.025Z,2.38
2022-10-22T02:19:40.207Z,2.08
2022-10-22T02:22:08.115Z,2.60
2022-10-22T02:24:35.507Z,2.15
2022-10-22T02:27:07.621Z,2.10
2022-10-22T02:29:37.704Z,2.08
2022-10-22T02:32:06.706Z,2.15
2022-10-22T02:34:35.457Z,2.10
2022-10-22T02:37:04.068Z,1.98
2022-10-22T02:39:32.539Z,2.13
2022-10-22T02:42:01.619Z,2.20
2022-10-22T02:44:28.960Z,2.33
2022-10-22T02:46:56.397Z,1.80
2022-10-22T02:49:23.801Z,2.10
2022-10-22T02:51:52.491Z,1.73
2022-10-22T02:54:19.843Z,1.80
2022-10-22T02:56:47.267Z,1.95
2022-10-22T02:59:14.613Z,1.83
2022-10-22T03:01:42.220Z,1.75
2022-10-22T03:04:09.927Z,1.92
2022-10-22T03:06:37.484Z,1.90
2022-10-22T03:09:06.263Z,1.52
2022-10-22T03:11:33.925Z,1.97
2022-10-22T03:14:01.272Z,1.88
2022-10-22T03:16:28.615Z,1.98
2022-10-22T03:18:55.963Z,1.92
2022-10-22T03:21:29.096Z,2.10
2022-10-22T03:23:56.577Z,1.77
2022-10-22T03:26:25.547Z,1.88
2022-10-22T03:28:52.925Z,2.03
2022-10-22T03:31:20.249Z,2.40
2022-10-22T03:33:47.594Z,1.80
2022-10-22T03:36:14.964Z,1.83
2022-10-22T03:38:42.813Z,1.52
2022-10-22T03:41:10.512Z,1.90
2022-10-22T03:43:40.767Z,2.30
2022-10-22T03:46:08.104Z,2.00
2022-10-22T03:48:35.457Z,1.53
2022-10-22T03:51:02.791Z,1.55
2022-10-22T03:53:30.125Z,1.98
2022-10-22T03:55:57.499Z,1.85
2022-10-22T03:58:24.880Z,1.63
2022-10-22T04:00:53.678Z,1.60
2022-10-22T04:03:21.138Z,1.90
2022-10-22T04:05:48.483Z,1.90
2022-10-22T04:08:15.834Z,2.50
2022-10-22T04:10:43.208Z,1.98
2022-10-22T04:13:10.569Z,1.80
2022-10-22T04:15:38.217Z,1.80
2022-10-22T04:18:07.305Z,1.90
2022-10-22T04:20:34.802Z,1.65
2022-10-22T04:23:02.159Z,1.77
2022-10-22T04:25:29.483Z,1.50
2022-10-22T04:27:56.831Z,1.70
2022-10-22T04:30:24.233Z,1.90
2022-10-22T04:32:51.653Z,1.75
2022-10-22T04:35:20.778Z,1.63
2022-10-22T04:37:48.156Z,2.10
2022-10-22T04:40:15.544Z,1.45
2022-10-22T04:42:42.932Z,1.67
2022-10-22T04:45:10.756Z,2.15
2022-10-22T04:47:38.235Z,2.03
2022-10-22T04:50:06.429Z,1.77
2022-10-22T04:52:35.180Z,1.77
2022-10-22T04:55:02.596Z,2.15
2022-10-22T04:57:30.519Z,1.92
2022-10-22T04:59:57.940Z,2.05
2022-10-22T05:02:25.507Z,2.00
2022-10-22T05:04:52.905Z,1.60
2022-10-22T05:07:20.276Z,1.70
2022-10-22T05:09:49.000Z,1.75
2022-10-22T05:12:16.612Z,1.73
2022-10-22T05:14:44.857Z,1.53
2022-10-22T05:17:12.786Z,2.22
2022-10-22T05:19:40.544Z,2.25
2022-10-22T05:22:07.911Z,1.75
2022-10-22T05:24:37.070Z,1.75
2022-10-22T05:27:06.060Z,1.70
2022-10-22T05:29:33.432Z,1.48
2022-10-22T05:32:00.793Z,1.98
2022-10-22T05:34:28.173Z,1.83
2022-10-22T05:36:55.522Z,1.90
2022-10-22T05:39:22.860Z,2.00
2022-10-22T05:41:50.176Z,1.70
2022-10-22T05:44:18.876Z,1.85
2022-10-22T05:46:46.544Z,1.95
2022-10-22T05:49:14.754Z,1.75
2022-10-22T05:51:42.220Z,1.80
2022-10-22T05:54:10.947Z,1.80
2022-10-22T05:56:39.328Z,1.60
2022-10-22T05:59:06.678Z,1.92
2022-10-22T06:01:36.205Z,1.75
2022-10-22T06:04:05.035Z,2.10
2022-10-22T06:06:34.079Z,1.98
2022-10-22T06:09:03.062Z,1.67
2022-10-22T06:11:34.156Z,1.70
2022-10-22T06:14:02.971Z,1.80
2022-10-22T06:16:30.609Z,1.87
2022-10-22T06:19:01.851Z,1.80
2022-10-22T06:21:29.596Z,1.45
2022-10-22T06:23:57.025Z,1.48
2022-10-22T06:26:24.656Z,1.60
2022-10-22T06:28:52.091Z,1.50
2022-10-22T06:31:19.580Z,1.65
2022-10-22T06:33:46.943Z,1.63
2022-10-22T06:36:17.082Z,1.63
2022-10-22T06:38:44.451Z,1.40
2022-10-22T06:41:12.996Z,1.57
2022-10-22T06:43:40.783Z,1.30
2022-10-22T06:46:09.625Z,1.20
2022-10-22T06:48:37.845Z,1.20
2022-10-22T06:51:05.610Z,1.38
2022-10-22T06:53:34.332Z,1.30
2022-10-22T06:56:05.624Z,1.40
2022-10-22T06:58:33.163Z,1.52
2022-10-22T07:01:03.918Z,1.95
2022-10-22T07:03:31.375Z,1.50
2022-10-22T07:06:00.145Z,1.40
2022-10-22T07:08:27.695Z,1.55
2022-10-22T07:10:56.462Z,1.58
2022-10-22T07:13:24.111Z,1.30
2022-10-22T07:15:53.520Z,1.40
2022-10-22T07:18:20.897Z,1.60
2022-10-22T07:20:48.256Z,1.40
2022-10-22T07:23:15.640Z,1.60
2022-10-22T07:25:43.097Z,1.55
2022-10-22T07:28:12.225Z,1.10
2022-10-22T07:30:40.378Z,1.13
2022-10-22T07:33:08.169Z,1.40
2022-10-22T07:35:35.860Z,1.40
2022-10-22T07:38:03.395Z,1.30
2022-10-22T07:40:30.739Z,1.65
2022-10-22T07:42:58.136Z,1.70
2022-10-22T07:45:26.903Z,1.40
2022-10-22T07:47:54.379Z,1.20
2022-10-22T07:50:22.206Z,1.30
2022-10-22T07:52:49.690Z,1.20
2022-10-22T07:55:17.136Z,1.27
2022-10-22T07:57:44.499Z,1.27
2022-10-22T08:00:12.420Z,1.23
2022-10-22T08:02:41.332Z,1.30
2022-10-22T08:05:09.544Z,1.30
2022-10-22T08:07:36.950Z,1.10
2022-10-22T08:10:04.608Z,1.58
2022-10-22T08:12:32.135Z,1.20
2022-10-22T08:15:00.800Z,1.48
2022-10-22T08:17:28.367Z,1.08
2022-10-22T08:19:57.412Z,1.60
2022-10-22T08:22:24.876Z,1.30
2022-10-22T08:24:53.400Z,1.23
2022-10-22T08:27:20.909Z,1.95
2022-10-22T08:29:48.291Z,1.00
2022-10-22T08:32:15.728Z,1.13
2022-10-22T08:34:43.097Z,1.33
2022-10-22T08:37:14.489Z,1.50
2022-10-22T08:39:41.994Z,1.27
2022-10-22T08:42:22.715Z,1.10
2022-10-22T08:45:01.312Z,1.03
2022-10-22T08:47:40.503Z,1.30
2022-10-22T08:50:10.462Z,1.60
2022-10-22T08:52:41.590Z,1.52
2022-10-22T08:55:13.214Z,1.50
2022-10-22T08:57:46.623Z,1.93
2022-10-22T09:00:20.331Z,1.85
2022-10-22T09:02:53.594Z,1.40
2022-10-22T09:05:28.459Z,1.83
2022-10-22T09:07:58.030Z,1.70
2022-10-22T09:10:27.443Z,1.90
2022-10-22T09:12:54.783Z,1.85
2022-10-22T09:15:22.552Z,1.80
2022-10-22T09:17:57.901Z,1.58
2022-10-22T09:20:28.691Z,1.20
2022-10-22T09:23:02.797Z,1.80
2022-10-22T09:25:31.665Z,1.50
2022-10-22T09:27:59.230Z,1.48
2022-10-22T09:30:27.990Z,1.40
2022-10-22T09:32:57.431Z,1.40
2022-10-22T09:35:25.301Z,1.50
2022-10-22T09:37:53.959Z,1.60
2022-10-22T09:40:23.072Z,1.20
2022-10-22T09:42:50.632Z,1.40
2022-10-22T09:45:20.846Z,1.60
2022-10-22T09:48:03.986Z,1.63
2022-10-22T09:50:40.627Z,1.50
2022-10-22T09:53:13.494Z,1.20
2022-10-22T09:55:43.186Z,1.30
2022-10-22T09:58:11.811Z,0.90
2022-10-22T10:00:39.288Z,1.40
2022-10-22T10:03:06.919Z,0.90
2022-10-22T10:05:35.439Z,1.10
2022-10-22T10:08:06.846Z,0.90
2022-10-22T10:10:42.719Z,1.20
2022-10-22T10:13:18.096Z,1.10
2022-10-22T10:15:51.648Z,1.00
2022-10-22T10:18:25.843Z,0.98
2022-10-22T10:20:57.430Z,0.70
2022-10-22T10:23:27.740Z,1.08
2022-10-22T10:25:58.142Z,0.77
2022-10-22T10:28:32.359Z,1.00
2022-10-22T10:31:04.201Z,1.25
2022-10-22T10:33:37.204Z,1.38
2022-10-22T10:36:08.419Z,1.77
2022-10-22T10:38:40.312Z,1.17
2022-10-22T10:41:12.181Z,1.10
2022-10-22T10:43:45.407Z,1.40
2022-10-22T10:46:15.203Z,1.20
2022-10-22T10:48:49.148Z,1.33
2022-10-22T10:51:29.284Z,1.13
2022-10-22T10:54:03.591Z,1.50
2022-10-22T10:56:38.209Z,1.33
2022-10-22T10:59:14.547Z,1.45
2022-10-22T11:01:47.232Z,1.50
2022-10-22T11:04:34.142Z,1.30
2022-10-22T11:07:11.029Z,1.20
2022-10-22T11:09:40.504Z,1.30
2022-10-22T11:12:11.424Z,1.27
2022-10-22T11:14:42.657Z,1.33
2022-10-22T11:17:12.580Z,1.30
2022-10-22T11:19:51.684Z,1.73
2022-10-22T11:22:26.578Z,1.65
2022-10-22T11:24:57.467Z,1.50
2022-10-22T11:27:29.415Z,1.45
2022-10-22T11:30:01.570Z,1.30
2022-10-22T11:32:29.187Z,1.20
2022-10-22T11:34:59.479Z,1.73
2022-10-22T11:37:30.491Z,1.67
2022-10-22T11:39:59.653Z,1.20
2022-10-22T11:42:33.394Z,1.90
2022-10-22T11:45:03.166Z,1.70
2022-10-22T11:47:32.763Z,1.50
2022-10-22T11:50:03.592Z,1.50
2022-10-22T11:52:42.449Z,1.40
2022-10-22T11:55:29.871Z,1.57
2022-10-22T11:57:57.813Z,1.30
2022-10-22T12:00:36.441Z,1.58
2022-10-22T12:03:04.434Z,1.20
2022-10-22T12:05:36.090Z,1.90
2022-10-22T12:08:17.131Z,1.63
2022-10-22T12:11:03.738Z,1.52
2022-10-22T12:13:32.032Z,1.80
2022-10-22T12:16:03.112Z,1.60
2022-10-22T12:18:34.104Z,1.77
2022-10-22T12:21:01.532Z,1.70
2022-10-22T12:23:31.505Z,1.80
2022-10-22T12:25:59.280Z,1.92
2022-10-22T12:28:26.635Z,2.03
2022-10-22T12:30:54.006Z,2.03
2022-10-22T12:33:26.304Z,1.70
2022-10-22T12:35:57.512Z,1.90
2022-10-22T12:38:25.493Z,1.77
2022-10-22T12:40:55.915Z,2.10
2022-10-22T12:43:26.052Z,2.03
2022-10-22T12:45:53.627Z,2.00
2022-10-22T12:48:23.203Z,2.05
2022-10-22T12:50:54.034Z,2.40
2022-10-22T12:53:23.488Z,1.98
2022-10-22T12:55:51.847Z,1.77
2022-10-22T12:58:20.488Z,1.90
2022-10-22T13:00:48.476Z,1.73
2022-10-22T13:03:26.275Z,1.98
2022-10-22T13:05:55.043Z,1.63
2022-10-22T13:10:55.978Z,2.60
2022-10-22T13:13:33.930Z,1.63
2022-10-22T13:16:14.217Z,1.80
2022-10-22T13:18:41.710Z,1.90
2022-10-22T13:21:23.335Z,1.50
2022-10-22T13:23:53.859Z,1.70
2022-10-22T13:26:21.432Z,1.48
2022-10-22T13:28:53.127Z,1.50
2022-10-22T13:31:22.170Z,1.25
2022-10-22T13:33:53.589Z,1.30
2022-10-22T13:36:22.777Z,1.20
2022-10-22T13:38:50.957Z,1.58
2022-10-22T13:41:23.030Z,1.33
2022-10-22T13:43:50.727Z,1.45
2022-10-22T13:46:18.240Z,1.25
2022-10-22T13:48:45.908Z,1.50
2022-10-22T13:51:15.468Z,1.48
2022-10-22T13:53:44.804Z,1.00
2022-10-22T13:56:15.365Z,1.10
2022-10-22T13:58:46.917Z,1.40
2022-10-22T14:01:18.734Z,1.47
2022-10-22T14:03:46.768Z,1.23
2022-10-22T14:06:14.914Z,1.30
2022-10-22T14:08:44.325Z,1.20
2022-10-22T14:11:11.899Z,1.15
2022-10-22T14:13:39.392Z,1.47
2022-10-22T14:16:07.624Z,1.40
2022-10-22T14:18:35.676Z,1.45
2022-10-22T14:21:07.258Z,1.52
2022-10-22T14:23:35.869Z,1.27
2022-10-22T14:26:07.144Z,1.30
2022-10-22T14:28:41.315Z,1.52
2022-10-22T14:31:13.891Z,1.40
2022-10-22T14:33:41.586Z,1.80
2022-10-22T14:36:10.191Z,1.98
2022-10-22T14:38:37.542Z,1.63
2022-10-22T14:41:15.700Z,1.58
2022-10-22T14:43:43.302Z,1.40
2022-10-22T14:46:12.106Z,1.23
2022-10-22T14:48:41.303Z,1.40
2022-10-22T14:51:08.869Z,1.20
2022-10-22T14:53:36.234Z,1.10
2022-10-22T14:56:03.613Z,1.50
2022-10-22T14:58:32.332Z,1.30
2022-10-22T15:01:02.238Z,1.70
2022-10-22T15:03:30.305Z,1.60
2022-10-22T15:05:57.886Z,1.50
2022-10-22T15:08:25.323Z,2.03
2022-10-22T15:10:59.806Z,1.65
2022-10-22T15:13:27.416Z,2.10
2022-10-22T15:15:56.637Z,2.20
2022-10-22T15:18:24.595Z,1.80
2022-10-22T15:20:58.405Z,1.83
2022-10-22T15:23:25.764Z,1.83
2022-10-22T15:25:53.126Z,1.75
2022-10-22T15:28:20.608Z,1.90
2022-10-22T15:30:52.954Z,2.13
2022-10-22T15:33:21.646Z,1.75
2022-10-22T15:35:49.011Z,1.70
2022-10-22T15:38:16.463Z,1.90
2022-10-22T15:40:43.842Z,14.47
2022-10-22T15:43:11.713Z,4.32
2022-10-22T15:45:39.151Z,2.40
2022-10-22T15:48:06.620Z,1.70
2022-10-22T15:50:37.945Z,2.22
2022-10-22T15:53:05.790Z,1.90
2022-10-22T15:55:33.193Z,2.10
2022-10-22T15:58:03.343Z,2.03
2022-10-22T16:00:31.622Z,2.17
2022-10-22T16:02:58.983Z,2.05
2022-10-22T16:05:27.678Z,1.93
2022-10-22T16:07:57.039Z,2.30
2022-10-22T16:10:24.404Z,2.17
2022-10-22T16:12:54.448Z,2.13
2022-10-22T16:15:21.810Z,2.20
2022-10-22T16:17:49.158Z,2.27
2022-10-22T16:20:16.685Z,2.70
2022-10-22T16:22:44.413Z,2.28
2022-10-22T16:25:14.236Z,2.30
2022-10-22T16:27:41.624Z,2.45
2022-10-22T16:30:09.223Z,2.03
2022-10-22T16:32:36.556Z,2.25
2022-10-22T16:35:03.913Z,2.80
2022-10-22T16:37:31.365Z,2.60
2022-10-22T16:39:58.730Z,2.60
2022-10-22T16:42:27.581Z,2.47
2022-10-22T16:44:55.137Z,2.55
2022-10-22T16:47:22.581Z,2.70
2022-10-22T16:49:49.929Z,2.67
2022-10-22T16:52:17.300Z,2.80
2022-10-22T16:54:46.658Z,2.87
2022-10-22T16:57:14.190Z,2.75
2022-10-22T16:59:42.966Z,3.17
2022-10-22T17:02:10.947Z,3.47
2022-10-22T17:04:38.374Z,2.90
2022-10-22T17:07:05.788Z,3.43
2022-10-22T17:09:33.202Z,3.05
2022-10-22T17:12:00.594Z,3.10
2022-10-22T17:14:28.139Z,3.22
2022-10-22T17:16:56.984Z,2.92
2022-10-22T17:19:24.897Z,3.17
2022-10-22T17:21:53.488Z,3.08
2022-10-22T17:24:21.182Z,3.50
2022-10-22T17:26:48.595Z,3.50
2022-10-22T17:29:16.712Z,4.25
2022-10-22T17:31:44.088Z,3.97
2022-10-22T17:34:16.252Z,10.77
2022-10-22T17:36:43.991Z,11.40
2022-10-22T17:39:14.301Z,10.00
2022-10-22T17:41:41.864Z,9.75
2022-10-22T17:44:09.850Z,8.37
2022-10-22T17:46:37.259Z,7.05
2022-10-22T17:49:06.836Z,7.35
2022-10-22T17:51:35.723Z,6.70
2022-10-22T17:54:05.967Z,6.53
2022-10-22T17:56:37.187Z,8.00
2022-10-22T17:59:04.541Z,9.38
2022-10-22T18:01:32.774Z,8.93
2022-10-22T18:04:01.304Z,9.02
2022-10-22T18:06:29.231Z,8.55
2022-10-22T18:08:58.185Z,9.13
2022-10-22T18:11:26.889Z,9.05
2022-10-22T18:13:54.956Z,10.48
2022-10-22T18:16:22.405Z,9.27
2022-10-22T18:18:50.280Z,9.40
2022-10-22T18:21:18.204Z,8.30
2022-10-22T18:23:46.239Z,7.95
2022-10-22T18:26:15.624Z,7.00
2022-10-22T18:28:43.304Z,6.30
2022-10-22T18:31:11.870Z,7.18
2022-10-22T18:33:40.473Z,6.87
2022-10-22T18:36:09.128Z,6.47
2022-10-22T18:38:38.093Z,7.05
2022-10-22T18:41:06.877Z,7.18
2022-10-22T18:43:35.878Z,6.95
2022-10-22T18:46:06.377Z,6.80
2022-10-22T18:48:33.780Z,6.57
2022-10-22T18:51:01.910Z,6.20
2022-10-22T18:53:29.279Z,7.15
2022-10-22T18:55:57.019Z,6.57
2022-10-22T18:58:24.411Z,6.97
2022-10-22T19:00:53.191Z,6.20
2022-10-22T19:03:20.577Z,6.20
2022-10-22T19:05:48.798Z,6.00
2022-10-22T19:08:17.425Z,5.93
2022-10-22T19:10:44.919Z,6.33
2022-10-22T19:13:13.399Z,5.80
2022-10-22T19:15:40.756Z,5.45
2022-10-22T19:18:09.834Z,4.95
2022-10-22T19:20:37.565Z,5.03
2022-10-22T19:23:06.090Z,4.77
2022-10-22T19:25:33.488Z,4.72
2022-10-22T19:28:01.128Z,4.72
2022-10-22T19:30:28.554Z,4.75
2022-10-22T19:32:55.900Z,6.13
2022-10-22T19:35:24.865Z,5.90
2022-10-22T19:37:53.017Z,7.05
2022-10-22T19:40:20.768Z,6.30
2022-10-22T19:42:51.219Z,6.30
2022-10-22T19:45:18.632Z,6.50
2022-10-22T19:47:45.994Z,6.17
2022-10-22T19:50:13.366Z,5.55
2022-10-22T19:52:42.383Z,5.20
2022-10-22T19:55:10.567Z,5.30
2022-10-22T19:57:38.850Z,5.47
2022-10-22T20:00:06.919Z,5.60
2022-10-22T20:02:34.284Z,6.47
2022-10-22T20:05:01.807Z,6.28
2022-10-22T20:07:29.894Z,6.25
2022-10-22T20:09:58.639Z,6.70
2022-10-22T20:12:26.031Z,7.87
2022-10-22T20:14:53.833Z,7.35
2022-10-22T20:17:21.199Z,7.00
2022-10-22T20:19:48.569Z,7.30
2022-10-22T20:22:17.990Z,8.38
2022-10-22T20:24:46.299Z,8.77
2022-10-22T20:27:15.397Z,8.25
2022-10-22T20:29:42.775Z,7.57
2022-10-22T20:32:10.152Z,7.35
2022-10-22T20:34:37.952Z,7.70
2022-10-22T20:37:05.360Z,7.07
2022-10-22T20:39:32.721Z,7.70
2022-10-22T20:42:00.088Z,7.65
2022-10-22T20:44:28.808Z,7.57
2022-10-22T20:49:24.672Z,6.70
2022-10-22T20:51:52.268Z,7.10
2022-10-22T20:54:20.099Z,6.80
2022-10-22T20:56:48.213Z,7.10
2022-10-22T20:59:16.028Z,7.03
2022-10-22T21:01:46.046Z,7.30
2022-10-22T21:04:13.542Z,7.40
2022-10-22T21:06:42.817Z,7.15
2022-10-22T21:09:11.313Z,6.95
2022-10-22T21:11:39.445Z,7.78
2022-10-22T21:14:07.309Z,7.77
2022-10-22T21:16:34.715Z,8.05
2022-10-22T21:19:03.441Z,7.40
2022-10-22T21:21:30.780Z,7.95
2022-10-22T21:23:58.259Z,7.75
2022-10-22T21:26:25.923Z,6.57
2022-10-22T21:28:53.290Z,7.07
2022-10-22T21:31:21.896Z,7.60
2022-10-22T21:33:50.101Z,7.45
2022-10-22T21:36:22.773Z,7.22
2022-10-22T21:38:50.741Z,7.03
2022-10-22T21:41:19.263Z,7.38
2022-10-22T21:43:47.031Z,7.03
2022-10-22T21:46:15.907Z,8.43
2022-10-22T21:48:43.592Z,8.63
2022-10-22T21:51:12.173Z,8.60
2022-10-22T21:53:41.329Z,8.40
2022-10-22T21:56:09.623Z,8.60
2022-10-22T21:58:37.424Z,8.68
2022-10-22T22:01:05.279Z,9.73
2022-10-22T22:03:32.984Z,8.47
2022-10-22T22:06:00.908Z,8.93
2022-10-22T22:08:28.282Z,9.35
2022-10-22T22:11:02.871Z,8.68
2022-10-22T22:13:30.304Z,8.82
2022-10-22T22:16:00.481Z,8.47
2022-10-22T22:18:27.856Z,8.18
2022-10-22T22:20:55.462Z,7.72
2022-10-22T22:23:22.854Z,7.72
2022-10-22T22:25:50.395Z,8.48
2022-10-22T22:28:19.121Z,7.67
2022-10-22T22:30:46.458Z,8.25
2022-10-22T22:33:13.831Z,8.40
2022-10-22T22:35:41.210Z,8.25
2022-10-22T22:38:08.596Z,7.93
2022-10-22T22:40:38.677Z,7.90
2022-10-22T22:43:06.037Z,8.43
2022-10-22T22:45:35.710Z,8.85
2022-10-22T22:48:03.102Z,7.82
2022-10-22T22:50:30.484Z,8.07
2022-10-22T22:52:57.863Z,7.90
2022-10-22T22:55:25.447Z,8.18
2022-10-22T22:57:52.873Z,7.88
2022-10-22T23:00:20.327Z,7.93
2022-10-22T23:02:49.012Z,7.75
2022-10-22T23:05:16.807Z,7.23
2022-10-22T23:07:44.186Z,7.45
2022-10-22T23:10:11.522Z,8.07
2022-10-22T23:12:39.056Z,7.82
2022-10-22T23:15:07.066Z,8.07
2022-10-22T23:20:03.156Z,8.15
2022-10-22T23:22:30.527Z,8.40
2022-10-22T23:24:58.260Z,9.15
2022-10-22T23:27:25.619Z,9.02
2022-10-22T23:29:53.297Z,8.63
2022-10-22T23:32:20.745Z,9.02
2022-10-22T23:34:48.084Z,9.30
2022-10-22T23:37:16.823Z,9.10
2022-10-22T23:39:44.228Z,8.50
2022-10-22T23:42:11.589Z,8.67
2022-10-22T23:44:38.942Z,8.55
2022-10-22T23:47:06.375Z,9.27
2022-10-22T23:49:33.845Z,9.20
2022-10-22T23:52:01.198Z,9.65
2022-10-22T23:54:29.950Z,8.90
2022-10-22T23:56:57.349Z,8.38
2022-10-22T23:59:24.694Z,9.10
